Saint Germain, Wisconsin
Current Conditions -  °F | °C
As of 9:15 AM on Thursday 30 Oct 2014 (Local Time) from KEGV Reporting Station
Overcast Overcast  
Wind Chill:   Ceiling: 1500
Heat Index:   Visibility: 10mi
Dew Point:   Wind: 0mph
Humidity: 83%   Direction: NA
Pressure: 30.03"   Gusts: NA
Location:  45.9°N, 89.49°W
Report Text: KEGV 301415Z AUTO 00000KT 10SM OVC015 03/00 A3003 RMK AO2 T00261001
Loading
Personal Weather Stations






























Interactive Weather Map
Tropical Storm Tracking
New forecast layout! Learn more

10-Day Weather Forecast

Advertisements
Track Severe Weather on mobile